sensor_id;sensor_type;location;lat;lon;timestamp;pressure;altitude;pressure_sealevel;temperature;humidity
62111;BME280;48102;47.526;19.072;2023-11-21T04:41:27;99920.13;;;4.10;100.00
62111;BME280;48102;47.526;19.072;2023-11-21T04:44:31;99917.56;;;4.09;100.00
62111;BME280;48102;47.526;19.072;2023-11-21T04:47:33;99922.56;;;4.16;100.00
62111;BME280;48102;47.526;19.072;2023-11-21T04:50:36;99923.97;;;4.26;100.00
62111;BME280;48102;47.526;19.072;2023-11-21T04:53:39;99937.59;;;4.36;100.00
62111;BME280;48102;47.526;19.072;2023-11-21T04:56:42;99938.94;;;4.48;100.00
62111;BME280;48102;47.526;19.072;2023-11-21T04:59:45;99943.16;;;4.53;100.00
62111;BME280;48102;47.526;19.072;2023-11-21T05:02:48;99948.25;;;4.57;100.00
62111;BME280;48102;47.526;19.072;2023-11-21T05:05:51;99946.47;;;4.59;100.00
62111;BME280;48102;47.526;19.072;2023-11-21T05:08:54;99955.00;;;4.64;100.00
62111;BME280;48102;47.526;19.072;2023-11-21T05:12:00;99957.38;;;4.71;100.00
62111;BME280;48102;47.526;19.072;2023-11-21T05:15:06;99957.91;;;4.81;100.00
62111;BME280;48102;47.526;19.072;2023-11-21T05:18:12;99963.69;;;4.91;100.00
62111;BME280;48102;47.526;19.072;2023-11-21T05:21:18;99965.50;;;4.89;100.00
62111;BME280;48102;47.526;19.072;2023-11-21T05:24:23;99963.66;;;4.92;100.00
62111;BME280;48102;47.526;19.072;2023-11-21T05:27:26;99946.09;;;4.96;100.00
62111;BME280;48102;47.526;19.072;2023-11-21T05:30:28;99944.22;;;5.01;100.00
62111;BME280;48102;47.526;19.072;2023-11-21T05:33:31;99935.31;;;5.07;100.00
62111;BME280;48102;47.526;19.072;2023-11-21T05:36:35;99932.75;;;5.05;100.00
62111;BME280;48102;47.526;19.072;2023-11-21T05:39:38;99936.09;;;5.09;100.00
62111;BME280;48102;47.526;19.072;2023-11-21T05:42:41;99945.75;;;5.07;100.00
62111;BME280;48102;47.526;19.072;2023-11-21T05:45:44;99952.09;;;4.99;100.00
62111;BME280;48102;47.526;19.072;2023-11-21T05:48:47;99949.28;;;5.06;100.00
62111;BME280;48102;47.526;19.072;2023-11-21T05:51:50;99950.66;;;5.16;100.00
62111;BME280;48102;47.526;19.072;2023-11-21T05:54:56;99949.81;;;5.15;100.00
62111;BME280;48102;47.526;19.072;2023-11-21T05:57:59;99955.56;;;5.25;100.00
62111;BME280;48102;47.526;19.072;2023-11-21T06:01:02;99961.31;;;5.36;100.00
62111;BME280;48102;47.526;19.072;2023-11-21T06:04:09;99960.06;;;5.46;100.00
62111;BME280;48102;47.526;19.072;2023-11-21T06:07:12;99958.03;;;5.54;100.00
62111;BME280;48102;47.526;19.072;2023-11-21T06:10:15;99977.09;;;5.58;100.00
62111;BME280;48102;47.526;19.072;2023-11-21T06:13:20;99991.00;;;5.59;100.00
62111;BME280;48102;47.526;19.072;2023-11-21T06:16:27;99990.94;;;5.60;100.00
62111;BME280;48102;47.526;19.072;2023-11-21T06:19:30;99997.72;;;5.66;100.00
62111;BME280;48102;47.526;19.072;2023-11-21T06:22:33;100004.50;;;5.71;100.00
62111;BME280;48102;47.526;19.072;2023-11-21T06:25:36;100001.72;;;5.76;100.00
62111;BME280;48102;47.526;19.072;2023-11-21T06:28:39;99999.78;;;5.81;100.00
62111;BME280;48102;47.526;19.072;2023-11-21T06:31:42;100008.22;;;5.89;100.00
62111;BME280;48102;47.526;19.072;2023-11-21T06:34:46;100021.66;;;6.03;100.00
62111;BME280;48102;47.526;19.072;2023-11-21T06:37:49;100023.16;;;6.11;100.00
62111;BME280;48102;47.526;19.072;2023-11-21T06:40:54;100042.16;;;6.16;100.00
62111;BME280;48102;47.526;19.072;2023-11-21T06:43:57;100038.44;;;6.21;100.00
62111;BME280;48102;47.526;19.072;2023-11-21T06:47:02;100033.94;;;6.26;100.00
62111;BME280;48102;47.526;19.072;2023-11-21T06:50:05;100039.69;;;6.35;100.00
62111;BME280;48102;47.526;19.072;2023-11-21T06:53:10;100052.56;;;6.41;100.00
62111;BME280;48102;47.526;19.072;2023-11-21T06:56:19;100053.94;;;6.51;100.00
62111;BME280;48102;47.526;19.072;2023-11-21T06:59:22;100042.41;;;6.57;100.00
62111;BME280;48102;47.526;19.072;2023-11-21T07:02:26;100041.97;;;6.67;100.00
62111;BME280;48102;47.526;19.072;2023-11-21T07:05:29;100044.28;;;6.75;100.00
62111;BME280;48102;47.526;19.072;2023-11-21T07:08:34;100053.66;;;6.81;100.00
62111;BME280;48102;47.526;19.072;2023-11-21T07:11:37;100056.22;;;6.82;100.00
62111;BME280;48102;47.526;19.072;2023-11-21T07:14:45;100057.03;;;6.84;100.00
62111;BME280;48102;47.526;19.072;2023-11-21T07:17:48;100066.28;;;6.93;100.00
62111;BME280;48102;47.526;19.072;2023-11-21T07:20:51;100061.53;;;7.02;100.00
62111;BME280;48102;47.526;19.072;2023-11-21T07:23:54;100068.13;;;7.13;100.00
62111;BME280;48102;47.526;19.072;2023-11-21T07:26:57;100077.31;;;7.23;100.00
62111;BME280;48102;47.526;19.072;2023-11-21T07:30:00;100074.50;;;7.27;100.00
62111;BME280;48102;47.526;19.072;2023-11-21T07:33:03;100067.63;;;7.25;100.00
62111;BME280;48102;47.526;19.072;2023-11-21T07:36:07;100074.50;;;7.27;100.00
62111;BME280;48102;47.526;19.072;2023-11-21T07:39:10;100060.38;;;7.32;100.00
62111;BME280;48102;47.526;19.072;2023-11-21T07:42:13;100059.72;;;7.47;100.00
62111;BME280;48102;47.526;19.072;2023-11-21T07:45:16;100061.84;;;7.59;100.00
62111;BME280;48102;47.526;19.072;2023-11-21T07:48:19;100066.12;;;7.62;100.00
62111;BME280;48102;47.526;19.072;2023-11-21T07:51:22;100070.31;;;7.66;100.00
62111;BME280;48102;47.526;19.072;2023-11-21T07:54:25;100066.66;;;7.70;100.00
62111;BME280;48102;47.526;19.072;2023-11-21T07:57:28;100067.19;;;7.78;100.00
62111;BME280;48102;47.526;19.072;2023-11-21T08:00:31;100078.25;;;7.85;100.00
62111;BME280;48102;47.526;19.072;2023-11-21T08:03:34;100063.03;;;7.93;100.00
62111;BME280;48102;47.526;19.072;2023-11-21T08:06:37;100064.41;;;8.01;100.00
62111;BME280;48102;47.526;19.072;2023-11-21T08:09:40;100072.06;;;8.06;100.00
62111;BME280;48102;47.526;19.072;2023-11-21T08:12:43;100072.50;;;8.16;100.00
62111;BME280;48102;47.526;19.072;2023-11-21T08:15:46;100060.69;;;8.26;100.00
62111;BME280;48102;47.526;19.072;2023-11-21T08:18:49;100062.28;;;8.30;100.00
62111;BME280;48102;47.526;19.072;2023-11-21T08:21:52;100069.09;;;8.34;100.00
62111;BME280;48102;47.526;19.072;2023-11-21T08:24:57;100064.37;;;8.42;100.00
62111;BME280;48102;47.526;19.072;2023-11-21T08:28:01;100051.09;;;8.45;100.00
62111;BME280;48102;47.526;19.072;2023-11-21T08:31:04;100041.44;;;8.46;100.00
62111;BME280;48102;47.526;19.072;2023-11-21T08:34:07;100054.22;;;8.53;100.00
62111;BME280;48102;47.526;19.072;2023-11-21T08:37:11;100046.91;;;8.60;100.00
62111;BME280;48102;47.526;19.072;2023-11-21T08:40:15;100050.41;;;8.61;100.00
62111;BME280;48102;47.526;19.072;2023-11-21T08:43:20;100048.09;;;8.72;100.00
62111;BME280;48102;47.526;19.072;2023-11-21T08:46:23;100043.22;;;8.83;100.00
62111;BME280;48102;47.526;19.072;2023-11-21T08:49:28;100046.09;;;8.96;100.00
62111;BME280;48102;47.526;19.072;2023-11-21T08:52:33;100035.06;;;9.07;100.00
62111;BME280;48102;47.526;19.072;2023-11-21T08:55:36;100041.59;;;9.17;100.00
62111;BME280;48102;47.526;19.072;2023-11-21T08:58:40;100042.00;;;9.26;100.00
62111;BME280;48102;47.526;19.072;2023-11-21T09:01:44;100045.19;;;9.33;100.00
62111;BME280;48102;47.526;19.072;2023-11-21T09:04:47;100049.28;;;9.39;100.00
62111;BME280;48102;47.526;19.072;2023-11-21T09:07:50;100055.25;;;9.42;100.00
62111;BME280;48102;47.526;19.072;2023-11-21T09:10:53;100059.34;;;9.48;100.00
62111;BME280;48102;47.526;19.072;2023-11-21T09:13:55;100041.84;;;9.47;100.00
62111;BME280;48102;47.526;19.072;2023-11-21T09:17:01;100059.19;;;9.51;100.00
62111;BME280;48102;47.526;19.072;2023-11-21T09:20:04;100043.87;;;9.59;100.00
62111;BME280;48102;47.526;19.072;2023-11-21T09:23:09;100040.22;;;9.62;100.00
62111;BME280;48102;47.526;19.072;2023-11-21T09:26:12;100038.28;;;9.65;100.00
62111;BME280;48102;47.526;19.072;2023-11-21T09:29:15;100036.28;;;9.70;100.00
62111;BME280;48102;47.526;19.072;2023-11-21T09:32:18;100037.59;;;9.79;100.00
62111;BME280;48102;47.526;19.072;2023-11-21T09:35:21;100031.47;;;9.78;100.00
62111;BME280;48102;47.526;19.072;2023-11-21T09:38:24;100029.06;;;9.91;100.00
62111;BME280;48102;47.526;19.072;2023-11-21T09:41:37;100016.81;;;10.08;100.00
62111;BME280;48102;47.526;19.072;2023-11-21T09:45:03;100015.97;;;10.23;100.00
62111;BME280;48102;47.526;19.072;2023-11-21T09:48:10;100015.44;;;10.34;100.00
62111;BME280;48102;47.526;19.072;2023-11-21T09:51:15;100009.13;;;10.36;100.00
62111;BME280;48102;47.526;19.072;2023-11-21T09:54:18;100010.84;;;10.37;100.00
62111;BME280;48102;47.526;19.072;2023-11-21T09:57:24;100016.13;;;10.37;100.00
62111;BME280;48102;47.526;19.072;2023-11-21T10:00:29;100014.41;;;10.36;100.00
62111;BME280;48102;47.526;19.072;2023-11-21T10:03:36;100010.84;;;10.37;100.00
62111;BME280;48102;47.526;19.072;2023-11-21T10:06:41;100004.75;;;10.37;100.00
62111;BME280;48102;47.526;19.072;2023-11-21T10:09:45;99998.44;;;10.39;100.00
62111;BME280;48102;47.526;19.072;2023-11-21T10:12:50;99997.09;;;10.32;100.00
62111;BME280;48102;47.526;19.072;2023-11-21T10:15:56;99994.22;;;10.37;100.00
62111;BME280;48102;47.526;19.072;2023-11-21T10:19:00;100004.81;;;10.35;100.00
62111;BME280;48102;47.526;19.072;2023-11-21T10:22:16;100001.69;;;10.28;100.00
62111;BME280;48102;47.526;19.072;2023-11-21T10:25:20;99993.84;;;10.27;100.00
62111;BME280;48102;47.526;19.072;2023-11-21T10:28:23;99986.56;;;10.32;100.00
62111;BME280;48102;47.526;19.072;2023-11-21T10:31:35;99980.59;;;10.44;100.00
62111;BME280;48102;47.526;19.072;2023-11-21T10:34:39;99988.03;;;10.53;100.00
62111;BME280;48102;47.526;19.072;2023-11-21T10:37:44;99991.84;;;10.64;100.00
62111;BME280;48102;47.526;19.072;2023-11-21T10:40:47;99983.00;;;10.65;100.00
62111;BME280;48102;47.526;19.072;2023-11-21T10:43:53;99982.12;;;10.64;100.00
62111;BME280;48102;47.526;19.072;2023-11-21T10:46:56;99976.78;;;10.66;100.00
62111;BME280;48102;47.526;19.072;2023-11-21T10:50:00;99981.09;;;10.83;100.00
62111;BME280;48102;47.526;19.072;2023-11-21T10:53:04;99983.19;;;11.08;100.00
62111;BME280;48102;47.526;19.072;2023-11-21T10:56:08;99981.44;;;11.22;100.00
62111;BME280;48102;47.526;19.072;2023-11-21T10:59:20;99989.31;;;11.38;100.00
62111;BME280;48102;47.526;19.072;2023-11-21T11:02:27;99977.87;;;11.53;100.00
62111;BME280;48102;47.526;19.072;2023-11-21T11:05:32;99973.94;;;11.75;100.00
62111;BME280;48102;47.526;19.072;2023-11-21T11:08:35;99974.00;;;11.73;100.00
62111;BME280;48102;47.526;19.072;2023-11-21T11:11:41;99985.22;;;11.63;100.00
62111;BME280;48102;47.526;19.072;2023-11-21T11:14:48;99970.81;;;11.54;100.00
62111;BME280;48102;47.526;19.072;2023-11-21T11:17:52;99969.19;;;11.51;100.00
62111;BME280;48102;47.526;19.072;2023-11-21T11:24:58;99970.00;;;11.38;100.00
62111;BME280;48102;47.526;19.072;2023-11-21T11:28:11;99967.47;;;11.36;100.00
62111;BME280;48102;47.526;19.072;2023-11-21T11:31:37;99977.06;;;11.37;100.00
62111;BME280;48102;47.526;19.072;2023-11-21T11:35:16;99968.22;;;11.38;100.00
62111;BME280;48102;47.526;19.072;2023-11-21T11:38:23;99962.00;;;11.39;100.00
62111;BME280;48102;47.526;19.072;2023-11-21T11:41:26;99956.72;;;11.39;100.00
62111;BME280;48102;47.526;19.072;2023-11-21T11:48:00;99952.38;;;11.38;100.00
62111;BME280;48102;47.526;19.072;2023-11-21T11:51:15;99958.44;;;11.54;100.00
62111;BME280;48102;47.526;19.072;2023-11-21T11:54:36;99945.38;;;11.53;100.00
62111;BME280;48102;47.526;19.072;2023-11-21T11:57:41;99945.25;;;11.40;100.00
62111;BME280;48102;47.526;19.072;2023-11-21T12:00:43;99944.84;;;11.32;100.00
62111;BME280;48102;47.526;19.072;2023-11-21T12:07:20;99937.78;;;11.33;100.00
62111;BME280;48102;47.526;19.072;2023-11-21T12:10:29;99932.22;;;11.37;100.00
62111;BME280;48102;47.526;19.072;2023-11-21T12:13:32;99939.47;;;11.48;100.00
62111;BME280;48102;47.526;19.072;2023-11-21T12:16:35;99936.41;;;11.55;100.00
62111;BME280;48102;47.526;19.072;2023-11-21T12:19:38;99928.38;;;11.57;100.00
62111;BME280;48102;47.526;19.072;2023-11-21T12:22:51;99927.06;;;11.50;100.00
62111;BME280;48102;47.526;19.072;2023-11-21T12:25:55;99930.56;;;11.50;100.00
62111;BME280;48102;47.526;19.072;2023-11-21T12:28:58;99929.44;;;11.54;100.00
62111;BME280;48102;47.526;19.072;2023-11-21T12:32:01;99934.59;;;11.56;100.00
62111;BME280;48102;47.526;19.072;2023-11-21T12:35:05;99932.06;;;11.54;100.00
62111;BME280;48102;47.526;19.072;2023-11-21T12:38:09;99920.28;;;11.60;100.00
62111;BME280;48102;47.526;19.072;2023-11-21T12:41:12;99911.34;;;11.63;100.00
62111;BME280;48102;47.526;19.072;2023-11-21T12:44:15;99909.44;;;11.65;100.00
62111;BME280;48102;47.526;19.072;2023-11-21T12:47:19;99911.50;;;11.74;100.00
62111;BME280;48102;47.526;19.072;2023-11-21T12:50:24;99916.59;;;11.77;100.00
62111;BME280;48102;47.526;19.072;2023-11-21T12:53:32;99927.28;;;11.75;100.00
62111;BME280;48102;47.526;19.072;2023-11-21T12:56:41;99924.72;;;11.74;100.00
62111;BME280;48102;47.526;19.072;2023-11-21T12:59:45;99920.84;;;11.65;100.00
62111;BME280;48102;47.526;19.072;2023-11-21T13:02:48;99922.75;;;11.63;100.00
62111;BME280;48102;47.526;19.072;2023-11-21T13:05:52;99924.03;;;11.56;100.00
62111;BME280;48102;47.526;19.072;2023-11-21T13:08:58;99919.72;;;11.55;100.00
62111;BME280;48102;47.526;19.072;2023-11-21T13:12:02;99919.88;;;11.52;100.00
62111;BME280;48102;47.526;19.072;2023-11-21T13:15:06;99923.59;;;11.49;100.00
62111;BME280;48102;47.526;19.072;2023-11-21T13:18:10;99925.72;;;11.43;100.00
62111;BME280;48102;47.526;19.072;2023-11-21T13:21:13;99934.09;;;11.35;100.00
62111;BME280;48102;47.526;19.072;2023-11-21T13:24:17;99932.50;;;11.33;100.00
62111;BME280;48102;47.526;19.072;2023-11-21T13:27:20;99922.22;;;11.28;100.00
62111;BME280;48102;47.526;19.072;2023-11-21T13:30:25;99928.69;;;11.22;100.00
62111;BME280;48102;47.526;19.072;2023-11-21T13:33:36;99931.03;;;11.13;100.00
62111;BME280;48102;47.526;19.072;2023-11-21T13:36:40;99928.94;;;11.03;100.00
62111;BME280;48102;47.526;19.072;2023-11-21T13:39:45;99927.84;;;10.92;100.00
62111;BME280;48102;47.526;19.072;2023-11-21T13:42:54;99934.59;;;10.82;100.00
62111;BME280;48102;47.526;19.072;2023-11-21T13:45:57;99938.72;;;10.71;100.00
62111;BME280;48102;47.526;19.072;2023-11-21T13:49:15;99931.97;;;10.66;100.00
62111;BME280;48102;47.526;19.072;2023-11-21T13:52:19;99930.66;;;10.43;100.00
62111;BME280;48102;47.526;19.072;2023-11-21T13:55:25;99934.13;;;10.43;100.00
62111;BME280;48102;47.526;19.072;2023-11-21T13:58:28;99933.69;;;10.35;100.00
62111;BME280;48102;47.526;19.072;2023-11-21T14:01:44;99942.69;;;10.31;100.00
62111;BME280;48102;47.526;19.072;2023-11-21T14:04:59;99944.75;;;10.26;100.00
62111;BME280;48102;47.526;19.072;2023-11-21T14:08:04;99943.00;;;10.09;100.00
62111;BME280;48102;47.526;19.072;2023-11-21T14:11:09;99950.53;;;9.99;100.00
62111;BME280;48102;47.526;19.072;2023-11-21T14:14:14;99947.56;;;9.90;100.00
62111;BME280;48102;47.526;19.072;2023-11-21T14:17:17;99953.75;;;9.89;100.00
62111;BME280;48102;47.526;19.072;2023-11-21T14:20:19;99955.16;;;9.78;100.00
62111;BME280;48102;47.526;19.072;2023-11-21T14:23:23;99958.13;;;9.72;100.00
62111;BME280;48102;47.526;19.072;2023-11-21T14:26:26;99968.91;;;9.50;100.00
62111;BME280;48102;47.526;19.072;2023-11-21T14:29:30;99967.66;;;9.40;100.00
62111;BME280;48102;47.526;19.072;2023-11-21T14:32:38;99964.97;;;9.24;100.00
62111;BME280;48102;47.526;19.072;2023-11-21T14:35:41;99970.84;;;9.12;100.00
62111;BME280;48102;47.526;19.072;2023-11-21T14:38:44;99972.38;;;8.99;100.00
62111;BME280;48102;47.526;19.072;2023-11-21T14:41:47;99966.88;;;8.86;100.00
62111;BME280;48102;47.526;19.072;2023-11-21T14:44:49;99968.00;;;8.80;100.00
62111;BME280;48102;47.526;19.072;2023-11-21T14:47:54;99965.41;;;8.62;100.00
62111;BME280;48102;47.526;19.072;2023-11-21T14:51:20;99974.50;;;8.54;100.00
62111;BME280;48102;47.526;19.072;2023-11-21T14:54:54;99978.09;;;8.33;100.00
62111;BME280;48102;47.526;19.072;2023-11-21T14:58:18;99970.87;;;8.19;100.00
62111;BME280;48102;47.526;19.072;2023-11-21T15:01:31;99969.00;;;8.02;100.00
62111;BME280;48102;47.526;19.072;2023-11-21T15:04:52;99976.84;;;8.04;100.00
62111;BME280;48102;47.526;19.072;2023-11-21T15:08:02;99974.47;;;7.98;100.00
62111;BME280;48102;47.526;19.072;2023-11-21T15:11:21;99976.66;;;7.88;100.00
62111;BME280;48102;47.526;19.072;2023-11-21T15:14:30;99973.72;;;7.75;100.00
62111;BME280;48102;47.526;19.072;2023-11-21T15:17:38;99970.00;;;7.61;100.00
62111;BME280;48102;47.526;19.072;2023-11-21T15:20:46;99973.72;;;7.55;100.00
62111;BME280;48102;47.526;19.072;2023-11-21T15:23:49;99977.28;;;7.54;100.00
62111;BME280;48102;47.526;19.072;2023-11-21T15:26:52;99977.75;;;7.43;100.00
62111;BME280;48102;47.526;19.072;2023-11-21T15:29:54;99978.16;;;7.34;100.00
62111;BME280;48102;47.526;19.072;2023-11-21T15:32:59;99980.47;;;7.20;100.00
62111;BME280;48102;47.526;19.072;2023-11-21T15:36:02;99988.06;;;7.06;100.00
62111;BME280;48102;47.526;19.072;2023-11-21T15:39:06;99985.16;;;6.91;100.00
62111;BME280;48102;47.526;19.072;2023-11-21T15:42:12;99976.81;;;6.82;100.00
62111;BME280;48102;47.526;19.072;2023-11-21T15:45:15;99981.56;;;6.72;100.00
62111;BME280;48102;47.526;19.072;2023-11-21T15:48:21;99986.50;;;6.58;100.00
62111;BME280;48102;47.526;19.072;2023-11-21T15:51:24;99991.19;;;6.49;100.00
62111;BME280;48102;47.526;19.072;2023-11-21T15:54:27;99987.88;;;6.44;100.00
62111;BME280;48102;47.526;19.072;2023-11-21T15:57:32;99974.97;;;6.40;100.00
62111;BME280;48102;47.526;19.072;2023-11-21T16:00:35;99974.25;;;6.36;100.00
62111;BME280;48102;47.526;19.072;2023-11-21T16:03:39;99980.44;;;6.34;100.00
62111;BME280;48102;47.526;19.072;2023-11-21T16:06:43;99978.91;;;6.28;100.00
62111;BME280;48102;47.526;19.072;2023-11-21T16:09:47;99978.41;;;6.18;100.00
62111;BME280;48102;47.526;19.072;2023-11-21T16:12:49;99977.78;;;6.12;100.00
62111;BME280;48102;47.526;19.072;2023-11-21T16:15:52;99982.50;;;6.02;100.00
62111;BME280;48102;47.526;19.072;2023-11-21T16:18:56;99986.13;;;5.98;100.00
62111;BME280;48102;47.526;19.072;2023-11-21T16:22:00;99991.59;;;5.92;100.00
62111;BME280;48102;47.526;19.072;2023-11-21T16:25:03;99990.94;;;5.85;100.00
